Time;durP1;ratioP1;P1;durP2;ratioP2;P2;SDS_P1;SDS_P2;PMS_P1;PMS_P2;Temp;Humidity;BMP_temperature;BMP_pressure;BME280_temperature;BME280_humidity;BME280_pressure;Samples;Min_cycle;Max_cycle;Signal;HPM_P1;HPM_P2
2021/05/04 00:00:30;;;;;;;;;;;18.40;51.60;;;;;;5054063;28;19917;-68
2021/05/04 00:02:55;;;;;;;;;;;18.40;51.60;;;;;;5054875;28;19925;-68
2021/05/04 00:05:21;;;;;;;;;;;18.40;51.50;;;;;;5057723;28;19917;-68
2021/05/04 00:07:46;;;;;;;;;;;18.40;51.50;;;;;;5058479;28;19925;-67
2021/05/04 00:10:12;;;;;;;;;;;18.40;51.50;;;;;;5056506;28;19974;-68
2021/05/04 00:12:37;;;;;;;;;;;18.40;51.50;;;;;;5061364;28;19916;-68
2021/05/04 00:15:04;;;;;;;;;;;18.40;51.50;;;;;;5052594;28;20679;-68
2021/05/04 00:17:30;;;;;;;;;;;18.40;51.50;;;;;;5058655;28;19959;-69
2021/05/04 00:19:55;;;;;;;;;;;18.40;51.40;;;;;;5056954;28;19924;-69
2021/05/04 00:22:21;;;;;;;;;;;18.40;51.40;;;;;;5044445;28;19924;-69
2021/05/04 00:24:46;;;;;;;;;;;18.40;51.40;;;;;;5054534;28;20394;-69
2021/05/04 00:27:12;;;;;;;;;;;18.40;51.40;;;;;;5061755;28;19955;-69
2021/05/04 00:29:37;;;;;;;;;;;18.40;51.40;;;;;;5038673;28;19916;-69
2021/05/04 00:32:03;;;;;;;;;;;18.40;51.30;;;;;;5056775;28;19952;-66
2021/05/04 00:34:28;;;;;;;;;;;18.40;51.30;;;;;;5049070;28;20418;-68
2021/05/04 00:36:54;;;;;;;;;;;18.40;51.30;;;;;;5058560;28;20005;-69
2021/05/04 00:39:19;;;;;;;;;;;18.40;51.30;;;;;;5061026;28;20336;-68
2021/05/04 00:41:44;;;;;;;;;;;18.40;51.30;;;;;;5058199;28;19923;-66
2021/05/04 00:44:10;;;;;;;;;;;18.40;51.30;;;;;;5054628;28;19916;-69
2021/05/04 00:46:35;;;;;;;;;;;18.40;51.30;;;;;;5057546;28;20288;-68
2021/05/04 00:49:01;;;;;;;;;;;18.40;51.20;;;;;;5056773;28;19963;-69
2021/05/04 00:51:26;;;;;;;;;;;18.40;51.20;;;;;;5052698;28;19917;-69
2021/05/04 00:53:52;;;;;;;;;;;18.40;51.30;;;;;;5053230;28;21451;-69
2021/05/04 00:56:18;;;;;;;;;;;18.40;51.30;;;;;;5035157;28;19921;-68
2021/05/04 00:58:43;;;;;;;;;;;18.40;51.20;;;;;;5059395;28;19924;-69
2021/05/04 01:01:08;;;;;;;;;;;18.40;51.20;;;;;;5046225;28;19921;-69
2021/05/04 01:03:34;;;;;;;;;;;18.40;51.20;;;;;;5047794;28;20394;-69
2021/05/04 01:05:59;;;;;;;;;;;18.40;51.20;;;;;;5048123;28;19924;-69
2021/05/04 01:08:25;;;;;;;;;;;18.40;51.20;;;;;;5054466;28;19920;-69
2021/05/04 01:10:50;;;;;;;;;;;18.40;51.20;;;;;;5059317;28;19939;-68
2021/05/04 01:13:16;;;;;;;;;;;18.40;51.10;;;;;;5058854;28;19923;-67
2021/05/04 01:15:41;;;;;;;;;;;18.40;51.10;;;;;;5063063;28;19952;-68
2021/05/04 01:18:07;;;;;;;;;;;18.40;51.10;;;;;;5049493;28;20430;-68
2021/05/04 01:20:32;;;;;;;;;;;18.40;51.10;;;;;;5064067;28;20383;-67
2021/05/04 01:22:58;;;;;;;;;;;18.40;51.10;;;;;;5050624;28;19927;-68
2021/05/04 01:25:23;;;;;;;;;;;18.40;51.10;;;;;;5063888;28;20393;-64
2021/05/04 01:27:49;;;;;;;;;;;18.40;51.00;;;;;;5063670;28;19917;-68
2021/05/04 01:30:14;;;;;;;;;;;18.40;51.00;;;;;;5064696;28;19920;-65
2021/05/04 01:32:40;;;;;;;;;;;18.40;51.00;;;;;;5067451;28;19939;-69
2021/05/04 01:35:06;;;;;;;;;;;18.40;51.00;;;;;;5065802;28;19924;-69
2021/05/04 01:37:31;;;;;;;;;;;18.40;51.00;;;;;;5062493;28;20045;-69
2021/05/04 01:39:57;;;;;;;;;;;18.40;51.00;;;;;;5060063;28;19950;-69
2021/05/04 01:42:22;;;;;;;;;;;18.40;51.00;;;;;;5060478;28;19927;-68
2021/05/04 01:44:49;;;;;;;;;;;18.40;51.00;;;;;;5051913;28;19993;-67
2021/05/04 01:47:14;;;;;;;;;;;18.40;50.90;;;;;;5062745;28;20007;-68
2021/05/04 01:49:40;;;;;;;;;;;18.40;50.90;;;;;;5063717;28;19923;-67
2021/05/04 01:52:06;;;;;;;;;;;18.40;51.00;;;;;;5060364;28;19916;-68
2021/05/04 01:54:31;;;;;;;;;;;18.40;50.90;;;;;;5060894;28;20383;-66
2021/05/04 01:56:58;;;;;;;;;;;18.40;50.90;;;;;;5066458;28;20023;-68
2021/05/04 01:59:24;;;;;;;;;;;18.40;50.90;;;;;;5059479;28;20290;-68
2021/05/04 02:01:49;;;;;;;;;;;18.40;50.90;;;;;;5062637;28;19924;-68
2021/05/04 02:04:15;;;;;;;;;;;18.40;50.90;;;;;;5060190;28;19917;-68
2021/05/04 02:06:40;;;;;;;;;;;18.40;50.90;;;;;;5058115;28;19917;-68
2021/05/04 02:09:06;;;;;;;;;;;18.30;50.80;;;;;;5060325;28;19932;-67
2021/05/04 02:11:31;;;;;;;;;;;18.40;50.90;;;;;;5059704;28;20015;-68
2021/05/04 02:13:57;;;;;;;;;;;18.40;50.90;;;;;;5042842;28;19967;-68
2021/05/04 02:16:22;;;;;;;;;;;18.30;50.80;;;;;;5045672;28;19932;-68
2021/05/04 02:18:48;;;;;;;;;;;18.30;50.80;;;;;;5064079;28;19967;-67
2021/05/04 02:21:15;;;;;;;;;;;18.30;50.80;;;;;;5053945;28;19920;-68
2021/05/04 02:23:40;;;;;;;;;;;18.30;50.80;;;;;;5061332;28;20418;-68
2021/05/04 02:26:06;;;;;;;;;;;18.40;50.80;;;;;;5062926;28;19944;-68
2021/05/04 02:28:31;;;;;;;;;;;18.30;50.80;;;;;;5060719;28;20330;-68
2021/05/04 02:30:57;;;;;;;;;;;18.30;50.80;;;;;;5045185;28;19917;-68
2021/05/04 02:33:22;;;;;;;;;;;18.30;50.80;;;;;;5060530;28;19924;-66
2021/05/04 02:35:48;;;;;;;;;;;18.30;50.80;;;;;;5056601;28;20351;-65
2021/05/04 02:38:13;;;;;;;;;;;18.30;50.80;;;;;;5060373;28;19928;-67
2021/05/04 02:40:38;;;;;;;;;;;18.30;50.80;;;;;;5061924;28;19920;-68
2021/05/04 02:43:04;;;;;;;;;;;18.30;50.80;;;;;;5057414;28;19948;-68
2021/05/04 02:45:29;;;;;;;;;;;18.30;50.90;;;;;;5059413;28;19924;-68
2021/05/04 02:47:55;;;;;;;;;;;18.30;50.80;;;;;;5058714;28;19917;-67
2021/05/04 02:50:20;;;;;;;;;;;18.30;50.90;;;;;;5062116;28;20396;-68
2021/05/04 02:52:46;;;;;;;;;;;18.30;50.80;;;;;;5061656;28;19924;-68
2021/05/04 02:55:13;;;;;;;;;;;18.30;50.80;;;;;;5061069;28;19920;-68
2021/05/04 02:57:39;;;;;;;;;;;18.30;50.80;;;;;;5061282;28;19971;-68
2021/05/04 03:00:04;;;;;;;;;;;18.30;50.80;;;;;;5041196;28;19924;-65
2021/05/04 03:02:30;;;;;;;;;;;18.30;50.90;;;;;;5054704;28;19928;-68
2021/05/04 03:04:55;;;;;;;;;;;18.30;50.90;;;;;;5040066;28;20306;-66
2021/05/04 03:07:21;;;;;;;;;;;18.30;50.80;;;;;;5062798;28;19916;-68
2021/05/04 03:09:46;;;;;;;;;;;18.30;50.80;;;;;;5054768;28;19917;-67
2021/05/04 03:12:12;;;;;;;;;;;18.30;50.80;;;;;;5057023;28;20388;-67
2021/05/04 03:14:37;;;;;;;;;;;18.30;50.80;;;;;;5064280;28;19924;-64
2021/05/04 03:17:03;;;;;;;;;;;18.30;50.90;;;;;;5061481;28;19921;-68
2021/05/04 03:19:28;;;;;;;;;;;18.30;50.90;;;;;;5062928;28;20484;-68
2021/05/04 03:21:54;;;;;;;;;;;18.30;50.90;;;;;;5057376;28;19927;-67
2021/05/04 03:24:19;;;;;;;;;;;18.30;50.90;;;;;;5053705;28;19929;-68
2021/05/04 03:26:45;;;;;;;;;;;18.30;50.90;;;;;;5051230;28;19924;-67
2021/05/04 03:29:11;;;;;;;;;;;18.30;50.90;;;;;;5052253;28;20338;-67
2021/05/04 03:31:36;;;;;;;;;;;18.30;50.90;;;;;;5056379;28;19928;-68
2021/05/04 03:34:02;;;;;;;;;;;18.30;51.00;;;;;;5055330;28;20303;-68
2021/05/04 03:36:27;;;;;;;;;;;18.30;50.90;;;;;;5058271;28;19928;-67
2021/05/04 03:38:52;;;;;;;;;;;18.30;50.90;;;;;;5055550;28;19920;-68
2021/05/04 03:41:18;;;;;;;;;;;18.30;50.90;;;;;;5058620;28;20425;-68
2021/05/04 03:43:43;;;;;;;;;;;18.30;50.90;;;;;;5049445;28;19923;-66
2021/05/04 03:46:09;;;;;;;;;;;18.30;50.90;;;;;;5059208;28;19927;-67
2021/05/04 03:48:34;;;;;;;;;;;18.30;50.90;;;;;;5062642;28;20268;-65
2021/05/04 03:51:00;;;;;;;;;;;18.30;50.90;;;;;;5060754;28;19925;-67
2021/05/04 03:53:25;;;;;;;;;;;18.20;50.90;;;;;;5055327;28;19916;-68
2021/05/04 03:55:51;;;;;;;;;;;18.30;50.90;;;;;;5062272;28;20395;-67
2021/05/04 03:58:16;;;;;;;;;;;18.30;50.90;;;;;;5057326;28;19917;-68
2021/05/04 04:00:41;;;;;;;;;;;18.30;50.90;;;;;;5060540;28;19923;-67
2021/05/04 04:03:07;;;;;;;;;;;18.20;50.90;;;;;;5061702;28;20415;-68
2021/05/04 04:05:32;;;;;;;;;;;18.30;51.00;;;;;;5056082;28;19920;-67
2021/05/04 04:07:58;;;;;;;;;;;18.30;51.00;;;;;;5062851;28;19924;-68
2021/05/04 04:10:23;;;;;;;;;;;18.20;51.00;;;;;;5064071;28;19916;-66
2021/05/04 04:12:49;;;;;;;;;;;18.20;51.00;;;;;;5056913;28;20422;-68
2021/05/04 04:15:14;;;;;;;;;;;18.20;51.00;;;;;;5054282;28;19927;-67
2021/05/04 04:17:40;;;;;;;;;;;18.20;51.00;;;;;;5055960;28;19920;-68
2021/05/04 04:20:07;;;;;;;;;;;18.20;51.00;;;;;;5051500;28;19952;-67
2021/05/04 04:22:34;;;;;;;;;;;18.20;51.00;;;;;;5057800;28;19920;-65
2021/05/04 04:24:59;;;;;;;;;;;18.20;51.00;;;;;;5059802;28;19964;-67
2021/05/04 04:27:25;;;;;;;;;;;18.20;51.00;;;;;;5052565;28;19924;-68
2021/05/04 04:29:50;;;;;;;;;;;18.20;51.00;;;;;;5054531;28;20005;-68
2021/05/04 04:32:16;;;;;;;;;;;18.20;51.00;;;;;;5053545;28;20292;-65
2021/05/04 04:34:41;;;;;;;;;;;18.20;51.00;;;;;;5046850;28;19917;-65
2021/05/04 04:37:06;;;;;;;;;;;18.30;51.00;;;;;;5050471;28;19971;-68
2021/05/04 04:39:32;;;;;;;;;;;18.20;51.00;;;;;;5058475;28;20838;-67
2021/05/04 04:41:58;;;;;;;;;;;18.20;51.00;;;;;;5063916;28;19966;-67
2021/05/04 04:44:23;;;;;;;;;;;18.20;51.00;;;;;;5065666;28;19924;-67
2021/05/04 04:46:49;;;;;;;;;;;18.20;51.10;;;;;;5073889;28;19932;-67
2021/05/04 04:49:15;;;;;;;;;;;18.20;51.20;;;;;;5066293;28;19920;-69
2021/05/04 04:51:40;;;;;;;;;;;18.20;51.20;;;;;;5073329;28;19925;-67
2021/05/04 04:54:06;;;;;;;;;;;18.30;51.20;;;;;;5071117;28;19920;-68
2021/05/04 04:56:32;;;;;;;;;;;18.20;51.00;;;;;;5065281;28;19927;-67
2021/05/04 04:58:58;;;;;;;;;;;18.20;50.90;;;;;;5059487;28;19924;-66
2021/05/04 05:01:23;;;;;;;;;;;18.20;51.10;;;;;;5060179;28;19959;-66
2021/05/04 05:03:48;;;;;;;;;;;18.20;51.60;;;;;;5064812;28;19927;-67
2021/05/04 05:06:14;;;;;;;;;;;18.20;51.80;;;;;;5057094;28;20018;-66
2021/05/04 05:08:39;;;;;;;;;;;18.20;51.90;;;;;;5057509;28;19916;-67
2021/05/04 05:11:05;;;;;;;;;;;18.20;51.90;;;;;;5061079;28;21533;-66
2021/05/04 05:13:30;;;;;;;;;;;18.20;51.70;;;;;;5059761;28;19966;-64
2021/05/04 05:15:56;;;;;;;;;;;18.20;51.70;;;;;;5059466;28;19927;-67
2021/05/04 05:18:21;;;;;;;;;;;18.20;51.60;;;;;;5062755;28;19961;-66
2021/05/04 05:20:47;;;;;;;;;;;18.20;51.60;;;;;;5055955;28;20427;-67
2021/05/04 05:23:12;;;;;;;;;;;18.20;51.40;;;;;;5063972;28;19921;-68
2021/05/04 05:25:38;;;;;;;;;;;18.20;51.70;;;;;;5063424;28;19931;-69
2021/05/04 05:28:04;;;;;;;;;;;18.20;51.60;;;;;;5060149;28;19917;-68
2021/05/04 05:30:30;;;;;;;;;;;18.20;51.50;;;;;;5059601;28;19931;-68
2021/05/04 05:32:55;;;;;;;;;;;18.20;51.50;;;;;;5066158;28;19920;-69
2021/05/04 05:35:20;;;;;;;;;;;18.20;52.50;;;;;;5064468;28;19967;-67
2021/05/04 05:37:46;;;;;;;;;;;18.20;53.00;;;;;;5060868;28;19912;-67
2021/05/04 05:40:11;;;;;;;;;;;18.20;52.90;;;;;;5066989;28;19917;-68
2021/05/04 05:42:37;;;;;;;;;;;18.20;52.90;;;;;;5065623;28;20023;-64
2021/05/04 05:45:03;;;;;;;;;;;18.20;52.80;;;;;;5067559;28;19966;-69
2021/05/04 05:47:28;;;;;;;;;;;18.20;52.80;;;;;;5066060;28;20484;-67
2021/05/04 05:49:54;;;;;;;;;;;18.20;52.70;;;;;;5067552;28;20212;-68
2021/05/04 05:52:19;;;;;;;;;;;18.20;52.70;;;;;;5066329;28;19912;-67
2021/05/04 05:54:45;;;;;;;;;;;18.20;52.70;;;;;;5066576;28;19948;-67
2021/05/04 05:57:10;;;;;;;;;;;18.20;52.70;;;;;;5065463;28;19916;-67
2021/05/04 05:59:35;;;;;;;;;;;18.20;52.70;;;;;;5066219;28;19970;-67
2021/05/04 06:02:01;;;;;;;;;;;18.20;52.70;;;;;;5066337;28;20341;-67
2021/05/04 06:04:26;;;;;;;;;;;18.20;52.70;;;;;;5066399;28;19920;-67
2021/05/04 06:06:52;;;;;;;;;;;18.20;52.60;;;;;;5067044;28;20448;-67
2021/05/04 06:09:17;;;;;;;;;;;18.20;52.60;;;;;;5068527;28;19963;-67
2021/05/04 06:11:43;;;;;;;;;;;18.20;52.60;;;;;;5067993;28;19913;-63
2021/05/04 06:14:08;;;;;;;;;;;18.20;52.60;;;;;;5068797;28;19921;-68
2021/05/04 06:16:34;;;;;;;;;;;18.20;52.60;;;;;;5064911;28;20332;-66
2021/05/04 06:18:59;;;;;;;;;;;18.20;52.50;;;;;;5066677;28;20306;-67
2021/05/04 06:21:25;;;;;;;;;;;18.20;52.50;;;;;;5066410;28;19913;-68
2021/05/04 06:23:51;;;;;;;;;;;18.20;52.40;;;;;;5066706;28;20473;-66
2021/05/04 06:26:18;;;;;;;;;;;18.20;52.10;;;;;;5066376;28;19920;-67
2021/05/04 06:28:47;;;;;;;;;;;18.20;51.80;;;;;;5048099;28;19953;-67
2021/05/04 06:31:15;;;;;;;;;;;18.30;51.60;;;;;;5066234;28;19919;-67
2021/05/04 06:33:40;;;;;;;;;;;18.20;51.40;;;;;;5066157;28;19973;-68
2021/05/04 06:36:06;;;;;;;;;;;18.20;52.00;;;;;;5066461;28;19924;-68
2021/05/04 06:38:31;;;;;;;;;;;18.20;51.40;;;;;;5047787;28;19999;-68
2021/05/04 06:40:57;;;;;;;;;;;18.20;51.40;;;;;;5064974;28;20291;-67
2021/05/04 06:43:22;;;;;;;;;;;18.20;51.30;;;;;;5066063;28;19916;-67
2021/05/04 06:45:48;;;;;;;;;;;18.20;51.30;;;;;;5065782;28;19926;-66
2021/05/04 06:48:13;;;;;;;;;;;18.20;51.20;;;;;;5066317;28;19923;-67
2021/05/04 06:50:39;;;;;;;;;;;18.20;51.10;;;;;;5066615;28;20393;-67
2021/05/04 06:53:04;;;;;;;;;;;18.20;51.00;;;;;;5065580;28;19919;-68
2021/05/04 06:55:30;;;;;;;;;;;18.20;51.00;;;;;;5065230;28;21473;-67
2021/05/04 06:57:55;;;;;;;;;;;18.20;51.00;;;;;;5063986;28;19927;-66
2021/05/04 07:00:21;;;;;;;;;;;18.20;51.20;;;;;;5064498;28;19974;-67
2021/05/04 07:02:47;;;;;;;;;;;18.20;51.50;;;;;;5064114;28;19924;-67
2021/05/04 07:05:12;;;;;;;;;;;18.20;51.60;;;;;;5030949;28;19918;-65
2021/05/04 07:07:38;;;;;;;;;;;18.20;51.70;;;;;;5047938;28;19912;-64
2021/05/04 07:10:03;;;;;;;;;;;18.20;51.70;;;;;;5065960;28;19980;-67
2021/05/04 07:12:29;;;;;;;;;;;18.20;51.70;;;;;;5065341;28;19923;-67
2021/05/04 07:14:54;;;;;;;;;;;18.20;51.70;;;;;;5048249;28;20072;-67
2021/05/04 07:17:20;;;;;;;;;;;18.20;51.70;;;;;;5065274;28;20310;-67
2021/05/04 07:19:45;;;;;;;;;;;18.20;51.70;;;;;;5064845;28;20004;-67
2021/05/04 07:22:11;;;;;;;;;;;18.20;51.70;;;;;;5046249;28;19927;-67
2021/05/04 07:24:37;;;;;;;;;;;18.20;51.80;;;;;;5064642;28;19920;-68
2021/05/04 07:27:03;;;;;;;;;;;18.20;51.80;;;;;;5064461;28;19912;-68
2021/05/04 07:29:28;;;;;;;;;;;18.20;51.80;;;;;;5062006;28;19916;-67
2021/05/04 07:31:54;;;;;;;;;;;18.20;51.70;;;;;;5063868;28;19917;-66
2021/05/04 07:34:19;;;;;;;;;;;18.20;51.80;;;;;;5063836;28;19948;-66
2021/05/04 07:36:45;;;;;;;;;;;18.20;51.80;;;;;;5063800;28;19934;-66
2021/05/04 07:39:10;;;;;;;;;;;18.20;51.80;;;;;;5064147;28;19948;-66
2021/05/04 07:41:35;;;;;;;;;;;18.20;51.70;;;;;;5063642;28;19913;-67
2021/05/04 07:44:01;;;;;;;;;;;18.20;51.80;;;;;;5064008;28;20421;-66
2021/05/04 07:46:27;;;;;;;;;;;18.20;51.70;;;;;;5063413;28;19912;-67
2021/05/04 07:48:54;;;;;;;;;;;18.20;51.70;;;;;;5063090;28;19939;-67
2021/05/04 07:51:19;;;;;;;;;;;18.20;51.70;;;;;;5063532;28;19917;-67
2021/05/04 07:53:45;;;;;;;;;;;18.20;51.80;;;;;;5064196;28;20293;-67
2021/05/04 07:56:10;;;;;;;;;;;18.20;51.70;;;;;;5045253;28;19917;-67
2021/05/04 07:58:36;;;;;;;;;;;18.20;51.70;;;;;;5063195;28;19980;-67
2021/05/04 08:01:02;;;;;;;;;;;18.20;51.70;;;;;;5044381;28;19912;-67
2021/05/04 08:03:28;;;;;;;;;;;18.20;51.60;;;;;;5045959;28;19912;-66
2021/05/04 08:05:54;;;;;;;;;;;18.20;51.70;;;;;;5063358;28;19912;-66
2021/05/04 08:08:19;;;;;;;;;;;18.20;51.70;;;;;;5063072;28;19913;-66
2021/05/04 08:10:45;;;;;;;;;;;18.20;51.60;;;;;;5062730;28;19916;-66
2021/05/04 08:13:10;;;;;;;;;;;18.20;51.60;;;;;;5062909;28;19939;-67
2021/05/04 08:15:36;;;;;;;;;;;18.20;51.50;;;;;;5063333;28;19959;-67
2021/05/04 08:18:04;;;;;;;;;;;18.20;51.60;;;;;;5062882;28;20569;-67
2021/05/04 08:20:32;;;;;;;;;;;18.20;51.50;;;;;;5033346;28;19913;-67
2021/05/04 08:22:58;;;;;;;;;;;18.20;51.50;;;;;;5055055;28;20003;-68
2021/05/04 08:25:24;;;;;;;;;;;18.20;51.40;;;;;;5063481;28;19999;-67
2021/05/04 08:27:49;;;;;;;;;;;18.20;51.40;;;;;;5063018;28;19924;-68
2021/05/04 08:30:15;;;;;;;;;;;18.20;51.40;;;;;;5063779;28;20291;-67
2021/05/04 08:32:40;;;;;;;;;;;18.20;51.40;;;;;;5062955;28;19913;-67
2021/05/04 08:35:06;;;;;;;;;;;18.30;51.30;;;;;;5063244;28;20549;-67
2021/05/04 08:37:31;;;;;;;;;;;18.20;51.90;;;;;;5062762;28;19940;-67
2021/05/04 08:39:57;;;;;;;;;;;18.20;51.30;;;;;;5063437;28;20299;-66
2021/05/04 08:42:22;;;;;;;;;;;18.20;51.20;;;;;;5062897;28;19916;-67
2021/05/04 08:44:50;;;;;;;;;;;18.20;51.20;;;;;;5063511;28;19977;-67
2021/05/04 08:47:16;;;;;;;;;;;18.20;51.30;;;;;;5063475;28;19912;-68
2021/05/04 08:49:41;;;;;;;;;;;18.20;51.20;;;;;;5063735;28;19935;-67
2021/05/04 08:52:07;;;;;;;;;;;18.20;51.20;;;;;;5063606;28;19920;-67
2021/05/04 08:54:32;;;;;;;;;;;18.20;51.20;;;;;;5045473;28;20414;-67
2021/05/04 08:56:58;;;;;;;;;;;18.20;51.20;;;;;;5062894;28;19951;-67
2021/05/04 08:59:23;;;;;;;;;;;18.20;51.20;;;;;;5062704;28;19965;-67
2021/05/04 09:01:48;;;;;;;;;;;18.20;51.20;;;;;;5062474;28;20375;-67
2021/05/04 09:04:29;;;;;;;;;;;18.20;51.00;;;;;;5063201;28;19912;-67
2021/05/04 09:07:01;;;;;;;;;;;18.20;51.10;;;;;;5062230;28;19912;-67
2021/05/04 09:09:35;;;;;;;;;;;18.20;51.10;;;;;;5062891;28;19912;-67
2021/05/04 09:17:25;;;;;;;;;;;18.20;51.00;;;;;;5062104;28;19916;-67
2021/05/04 09:22:37;;;;;;;;;;;18.20;51.00;;;;;;5062254;28;20299;-67
2021/05/04 09:25:03;;;;;;;;;;;18.10;51.00;;;;;;5066083;28;19919;-67
2021/05/04 09:27:28;;;;;;;;;;;18.20;51.00;;;;;;5063693;28;19912;-67
2021/05/04 09:30:03;;;;;;;;;;;18.10;51.00;;;;;;5066121;28;19917;-68
2021/05/04 09:32:29;;;;;;;;;;;18.20;51.00;;;;;;5036473;28;19920;-67
2021/05/04 09:34:58;;;;;;;;;;;18.20;51.00;;;;;;5065804;28;19974;-67
2021/05/04 09:37:24;;;;;;;;;;;18.20;51.00;;;;;;5065427;28;19921;-68
2021/05/04 09:39:50;;;;;;;;;;;18.20;51.00;;;;;;5066369;28;20501;-67
2021/05/04 09:42:15;;;;;;;;;;;18.20;50.90;;;;;;5048628;28;20262;-67
2021/05/04 09:44:42;;;;;;;;;;;18.20;51.00;;;;;;5065624;28;19919;-66
2021/05/04 09:47:07;;;;;;;;;;;18.20;51.00;;;;;;5065557;28;19913;-66
2021/05/04 09:49:34;;;;;;;;;;;18.10;50.80;;;;;;5065519;28;20455;-67
2021/05/04 09:52:15;;;;;;;;;;;18.20;50.90;;;;;;5065815;28;19924;-66
2021/05/04 09:54:41;;;;;;;;;;;18.20;50.90;;;;;;5065471;28;19962;-66
2021/05/04 09:57:26;;;;;;;;;;;18.20;51.00;;;;;;5065453;28;20341;-66
2021/05/04 09:59:51;;;;;;;;;;;18.20;50.90;;;;;;5058864;28;20037;-66
2021/05/04 10:02:17;;;;;;;;;;;18.20;51.00;;;;;;5066066;28;20406;-65
2021/05/04 10:04:42;;;;;;;;;;;18.20;50.90;;;;;;5065366;28;19920;-66
2021/05/04 10:07:08;;;;;;;;;;;18.20;50.80;;;;;;5065529;28;20374;-64
2021/05/04 10:09:33;;;;;;;;;;;18.20;50.90;;;;;;5047874;28;19912;-67
2021/05/04 10:11:59;;;;;;;;;;;18.20;50.90;;;;;;5047236;28;19967;-66
2021/05/04 10:14:24;;;;;;;;;;;18.20;50.90;;;;;;5047559;28;19917;-67
2021/05/04 10:16:49;;;;;;;;;;;18.20;50.80;;;;;;5047912;28;20523;-67
2021/05/04 10:19:15;;;;;;;;;;;18.20;50.90;;;;;;5047320;28;19913;-66
2021/05/04 10:21:41;;;;;;;;;;;18.20;50.80;;;;;;5047313;28;19962;-64
2021/05/04 10:24:07;;;;;;;;;;;18.20;50.90;;;;;;5032307;28;20389;-67
2021/05/04 10:26:32;;;;;;;;;;;18.20;50.80;;;;;;5065671;28;19920;-68
2021/05/04 10:28:58;;;;;;;;;;;18.20;50.80;;;;;;5047834;28;19916;-67
2021/05/04 10:31:36;;;;;;;;;;;18.20;51.10;;;;;;5046702;28;20386;-67
2021/05/04 10:34:20;;;;;;;;;;;18.20;51.00;;;;;;5043184;28;19940;-67
2021/05/04 10:36:46;;;;;;;;;;;18.20;50.90;;;;;;5064690;28;19924;-67
2021/05/04 10:39:11;;;;;;;;;;;18.20;50.80;;;;;;5064189;28;19913;-67
2021/05/04 10:41:57;;;;;;;;;;;18.20;50.90;;;;;;5065757;28;19912;-67
2021/05/04 10:44:23;;;;;;;;;;;18.20;51.00;;;;;;5014946;28;19916;-67
2021/05/04 10:46:48;;;;;;;;;;;18.20;51.00;;;;;;5064586;28;19912;-67
2021/05/04 10:49:40;;;;;;;;;;;18.20;50.90;;;;;;5044522;28;20097;-67
2021/05/04 10:52:05;;;;;;;;;;;18.20;51.10;;;;;;5064826;28;19982;-66
2021/05/04 10:54:30;;;;;;;;;;;18.20;51.00;;;;;;5064969;28;19916;-67
2021/05/04 10:56:57;;;;;;;;;;;18.20;51.00;;;;;;5046559;28;19973;-67
2021/05/04 10:59:22;;;;;;;;;;;18.20;51.00;;;;;;5064757;28;19924;-67
2021/05/04 11:02:06;;;;;;;;;;;18.20;51.00;;;;;;5063505;28;19912;-67
2021/05/04 11:04:44;;;;;;;;;;;18.20;51.00;;;;;;5064176;28;20529;-67
2021/05/04 11:07:10;;;;;;;;;;;18.20;50.90;;;;;;5064526;28;20019;-67
2021/05/04 11:09:39;;;;;;;;;;;18.20;51.00;;;;;;5033297;28;20386;-67
2021/05/04 11:12:08;;;;;;;;;;;18.20;51.00;;;;;;5063993;28;19955;-68
2021/05/04 11:14:35;;;;;;;;;;;18.10;51.00;;;;;;5036292;28;19912;-68
2021/05/04 11:17:01;;;;;;;;;;;18.10;51.00;;;;;;5063674;28;19920;-68
2021/05/04 11:19:33;;;;;;;;;;;18.20;50.90;;;;;;5064076;28;20034;-68
2021/05/04 11:21:58;;;;;;;;;;;18.20;50.90;;;;;;5059981;28;19912;-68
2021/05/04 11:24:35;;;;;;;;;;;18.10;51.00;;;;;;5064363;28;19969;-68
2021/05/04 11:27:03;;;;;;;;;;;18.20;51.10;;;;;;5063563;28;19912;-67
2021/05/04 11:29:32;;;;;;;;;;;18.20;51.00;;;;;;5064781;28;19912;-68
2021/05/04 11:32:10;;;;;;;;;;;18.20;51.00;;;;;;5064915;28;20394;-68
2021/05/04 11:34:43;;;;;;;;;;;18.20;51.00;;;;;;5064539;28;19916;-68
2021/05/04 11:37:12;;;;;;;;;;;18.20;51.00;;;;;;5062880;28;19921;-67
2021/05/04 11:39:38;;;;;;;;;;;18.20;51.10;;;;;;5063520;28;19917;-67
2021/05/04 11:42:04;;;;;;;;;;;18.20;51.00;;;;;;5034302;28;19925;-67
2021/05/04 11:44:30;;;;;;;;;;;18.20;51.00;;;;;;5058039;28;19939;-68
2021/05/04 11:46:56;;;;;;;;;;;18.20;51.00;;;;;;5063552;28;19959;-66
2021/05/04 11:49:28;;;;;;;;;;;18.20;51.00;;;;;;5064101;28;19940;-67
2021/05/04 11:52:04;;;;;;;;;;;18.20;51.10;;;;;;5063335;28;19912;-67
2021/05/04 11:54:30;;;;;;;;;;;18.20;51.00;;;;;;5064076;28;19912;-67
2021/05/04 11:56:56;;;;;;;;;;;18.20;51.00;;;;;;5063075;28;19917;-66
2021/05/04 11:59:23;;;;;;;;;;;18.20;50.90;;;;;;5064111;28;20019;-67
2021/05/04 12:01:48;;;;;;;;;;;18.20;51.00;;;;;;5044979;28;20329;-68
2021/05/04 12:04:14;;;;;;;;;;;18.20;50.90;;;;;;5063773;28;19913;-67
2021/05/04 12:06:46;;;;;;;;;;;18.20;51.00;;;;;;5045005;28;19913;-67
2021/05/04 12:09:15;;;;;;;;;;;18.20;50.80;;;;;;5063565;28;19913;-66
2021/05/04 12:11:41;;;;;;;;;;;18.20;50.90;;;;;;5063097;28;19920;-66
2021/05/04 12:14:07;;;;;;;;;;;18.20;51.00;;;;;;5063486;28;20306;-67
2021/05/04 12:16:32;;;;;;;;;;;18.20;51.60;;;;;;5062949;28;19916;-67
2021/05/04 12:18:58;;;;;;;;;;;18.20;51.00;;;;;;5063556;28;20535;-67
2021/05/04 12:21:23;;;;;;;;;;;18.20;50.90;;;;;;5063085;28;19917;-67
2021/05/04 12:23:49;;;;;;;;;;;18.20;50.80;;;;;;5063403;28;19913;-66
2021/05/04 12:26:19;;;;;;;;;;;18.20;50.80;;;;;;5062943;28;19917;-66
2021/05/04 12:28:45;;;;;;;;;;;18.20;50.80;;;;;;5062148;28;19919;-67
2021/05/04 12:31:11;;;;;;;;;;;18.20;50.90;;;;;;5063147;28;19967;-66
2021/05/04 12:33:37;;;;;;;;;;;18.20;50.80;;;;;;5064098;28;20361;-64
2021/05/04 12:36:06;;;;;;;;;;;18.20;50.80;;;;;;5052084;28;19920;-66
2021/05/04 12:38:38;;;;;;;;;;;18.20;51.20;;;;;;5063818;28;20321;-69
2021/05/04 12:41:09;;;;;;;;;;;18.20;50.80;;;;;;5062866;28;20393;-67
2021/05/04 12:43:38;;;;;;;;;;;18.20;50.80;;;;;;5061858;28;19913;-68
2021/05/04 12:46:05;;;;;;;;;;;18.20;50.80;;;;;;5062397;28;19912;-67
2021/05/04 12:48:30;;;;;;;;;;;18.20;50.90;;;;;;5063335;28;19940;-68
2021/05/04 12:50:59;;;;;;;;;;;18.20;50.80;;;;;;5062816;28;19955;-68
2021/05/04 12:53:32;;;;;;;;;;;18.20;50.90;;;;;;5062779;28;20012;-65
2021/05/04 12:56:02;;;;;;;;;;;18.20;50.90;;;;;;5064684;28;19923;-68
2021/05/04 12:58:27;;;;;;;;;;;18.20;51.40;;;;;;5067104;28;19916;-67
2021/05/04 13:01:09;;;;;;;;;;;18.20;50.80;;;;;;5066808;28;20379;-68
2021/05/04 13:03:47;;;;;;;;;;;18.20;50.90;;;;;;5048132;28;19913;-68
2021/05/04 13:06:17;;;;;;;;;;;18.20;50.90;;;;;;5066707;28;20368;-65
2021/05/04 13:08:49;;;;;;;;;;;18.20;50.90;;;;;;5067478;28;19912;-67
2021/05/04 13:11:17;;;;;;;;;;;18.20;51.00;;;;;;5066818;28;20454;-68
2021/05/04 13:14:26;;;;;;;;;;;18.20;50.80;;;;;;5067083;28;20299;-67
2021/05/04 13:16:54;;;;;;;;;;;18.10;50.70;;;;;;5047722;28;19917;-67
2021/05/04 13:30:34;;;;;;;;;;;18.20;50.70;;;;;;5048325;28;19919;-68
2021/05/04 13:33:02;;;;;;;;;;;18.20;50.60;;;;;;5064835;28;20106;-68
2021/05/04 13:35:31;;;;;;;;;;;18.20;50.70;;;;;;5066298;28;19920;-67
2021/05/04 13:49:01;;;;;;;;;;;18.20;50.80;;;;;;5066251;28;20383;-68
2021/05/04 13:51:26;;;;;;;;;;;18.10;50.80;;;;;;5065191;28;19920;-68
2021/05/04 13:53:51;;;;;;;;;;;18.10;50.70;;;;;;5065237;28;20683;-67
2021/05/04 13:56:17;;;;;;;;;;;18.10;50.80;;;;;;5065647;28;19923;-68
2021/05/04 13:58:43;;;;;;;;;;;18.10;50.80;;;;;;5065363;28;20062;-69
2021/05/04 14:04:40;;;;;;;;;;;18.20;50.80;;;;;;5065223;28;20291;-68
2021/05/04 14:06:43;;;;;;;;;;;18.20;50.80;;;;;;5039755;28;20414;-66
2021/05/04 14:25:04;;;;;;;;;;;18.20;50.70;;;;;;5073787;28;20514;-68
2021/05/04 14:28:12;;;;;;;;;;;18.20;50.80;;;;;;5063720;28;19920;-68
2021/05/04 14:30:37;;;;;;;;;;;18.20;50.70;;;;;;5065432;28;19916;-68
2021/05/04 14:33:03;;;;;;;;;;;18.10;50.60;;;;;;5065108;28;19912;-67
2021/05/04 14:35:35;;;;;;;;;;;18.20;50.70;;;;;;5050468;28;19921;-67
2021/05/04 14:38:13;;;;;;;;;;;18.20;50.70;;;;;;5065224;28;19913;-68
2021/05/04 14:40:53;;;;;;;;;;;18.20;50.50;;;;;;5065260;28;20324;-68
2021/05/04 14:43:34;;;;;;;;;;;18.20;50.60;;;;;;5064747;28;19913;-68
2021/05/04 14:59:29;;;;;;;;;;;18.20;50.60;;;;;;5066004;28;19920;-68
2021/05/04 15:01:55;;;;;;;;;;;18.20;50.60;;;;;;5065690;28;19916;-68
2021/05/04 15:04:20;;;;;;;;;;;18.20;50.60;;;;;;5065492;28;19920;-68
2021/05/04 15:06:46;;;;;;;;;;;18.20;50.60;;;;;;5064613;28;19920;-68
2021/05/04 15:09:12;;;;;;;;;;;18.20;50.60;;;;;;5063309;28;19962;-67
2021/05/04 15:11:41;;;;;;;;;;;18.20;50.60;;;;;;5033764;28;20418;-71
2021/05/04 15:14:11;;;;;;;;;;;18.20;50.50;;;;;;5062797;28;19951;-67
2021/05/04 15:16:46;;;;;;;;;;;18.20;50.60;;;;;;5064227;28;20004;-68